»·PEaware :: FDX243 KSFO-KBFI

FDX243 :: KSFO-KBFI

FLIGHT INFORMATION

Flight Status: Arrived
Operator:
Federal Express
More flights by this operator :: More flights under this callsign
Pilot: Cullen C. (7783)
Aircraft: BOEING 757-200
(B752)
More flights by this aircraft type
Origin: KSFO San Francisco Intl
United States
Destination: KBFI Boeing Field/King Co Intl
United States
More flights between these airports :: More routes between these airports
Route: TRUKN2 DEDHD BTG OLM2
File this flight plan on PilotEdge
Remarks:
Altitude:
(Current/Filed)
34,000ft
Speed:
(Current/Filed)
456kts
Departed: 01-Dec-17 09:45 AM
Arrived: 01-Dec-17 11:26 AM
Distance/Time
Traveled:
595nm/1:41
Distance/Time
To Go:
Arrived

Flight Plot

Page will automatically refresh every two minutes.

Flight plan parsing failed; only flown route is shown


Map Options




Map Legend


Flown Route
Filed Route
Departure Airport
Arrival Airport
Navaid (VOR, NDB)
Fix

Horizontal Profiles

Position Reports

Time Latitude Longitude Heading Altitude Ground
Speed
01-Dec-17 09:11 37.636159 -122.387642 60 24ft 0kts
01-Dec-17 09:12 37.636159 -122.387642 60 24ft 0kts
01-Dec-17 09:13 37.636159 -122.387642 60 24ft 0kts
01-Dec-17 09:14 37.636159 -122.387642 60 24ft 0kts
01-Dec-17 09:15 37.636159 -122.387642 60 24ft 0kts
01-Dec-17 09:16 37.636159 -122.387642 60 24ft 0kts
01-Dec-17 09:17 37.636159 -122.387642 60 23ft 0kts
01-Dec-17 09:18 37.636159 -122.387642 60 23ft 0kts
01-Dec-17 09:19 37.636159 -122.387642 60 23ft 0kts
01-Dec-17 09:20 37.636159 -122.387642 60 23ft 0kts
01-Dec-17 09:21 37.636159 -122.387642 60 23ft 0kts
01-Dec-17 09:22 37.636159 -122.387642 60 23ft 0kts
01-Dec-17 09:23 37.636159 -122.387642 60 23ft 0kts
01-Dec-17 09:24 37.636159 -122.387642 60 23ft 0kts
01-Dec-17 09:25 37.636159 -122.387642 60 23ft 0kts
01-Dec-17 09:26 37.636159 -122.387642 60 23ft 0kts
01-Dec-17 09:27 37.636159 -122.387642 60 23ft 0kts
01-Dec-17 09:28 37.636159 -122.387642 60 23ft 0kts
01-Dec-17 09:29 37.636159 -122.387642 60 23ft 0kts
01-Dec-17 09:30 37.636159 -122.387642 60 23ft 0kts
01-Dec-17 09:31 37.636078 -122.387819 60 23ft 2kts
01-Dec-17 09:32 37.636055 -122.388518 130 23ft 2kts
01-Dec-17 09:33 37.636327 -122.388753 148 23ft 0kts
01-Dec-17 09:34 37.636327 -122.388753 148 23ft 0kts
01-Dec-17 09:35 37.636327 -122.388753 148 23ft 0kts
01-Dec-17 09:36 37.634954 -122.388246 217 23ft 10kts
01-Dec-17 09:37 37.633922 -122.390846 243 23ft 8kts
01-Dec-17 09:38 37.631837 -122.391595 228 23ft 9kts
01-Dec-17 09:39 37.629629 -122.391697 130 23ft 10kts
01-Dec-17 09:40 37.628114 -122.388196 118 23ft 12kts
01-Dec-17 09:41 37.626288 -122.383859 117 23ft 15kts
01-Dec-17 09:42 37.624415 -122.379369 118 23ft 11kts
01-Dec-17 09:43 37.623105 -122.376248 118 23ft 9kts
01-Dec-17 09:44 37.622453 -122.374707 117 23ft 0kts
01-Dec-17 09:45 37.621727 -122.372955 117 23ft 10kts
01-Dec-17 09:46 37.620488 -122.370013 118 23ft 8kts
01-Dec-17 09:47 37.618744 -122.365860 117 23ft 17kts
01-Dec-17 09:48 37.616400 -122.360265 117 23ft 17kts
01-Dec-17 09:49 37.614002 -122.357229 237 23ft 11kts
01-Dec-17 09:50 37.622743 -122.379012 299 58ft 158kts
01-Dec-17 09:51 37.658145 -122.395742 48 2128ft 185kts
01-Dec-17 09:52 37.682420 -122.324298 66 4003ft 253kts
01-Dec-17 09:53 37.708944 -122.240920 65 7151ft 264kts
01-Dec-17 09:54 37.771825 -122.204823 4 9924ft 272kts
01-Dec-17 09:55 37.859508 -122.189997 4 10869ft 360kts
01-Dec-17 09:56 37.959877 -122.173384 2 13989ft 374kts
01-Dec-17 09:57 38.064192 -122.156171 1 16903ft 386kts
01-Dec-17 09:58 38.171252 -122.138455 0 19429ft 399kts
01-Dec-17 09:59 38.282686 -122.120088 0 21621ft 414kts
01-Dec-17 10:00 38.397985 -122.114922 351 23592ft 420kts
01-Dec-17 10:01 38.495947 -122.120578 351 25134ft 429kts
01-Dec-17 10:02 38.636921 -122.126448 351 27097ft 441kts
01-Dec-17 10:03 38.760120 -122.132969 351 28582ft 449kts
01-Dec-17 10:04 38.864848 -122.138988 351 29701ft 456kts
01-Dec-17 10:05 39.013010 -122.148428 350 31250ft 460kts
01-Dec-17 10:06 39.118704 -122.156171 350 32524ft 455kts
01-Dec-17 10:07 39.264297 -122.164192 350 33969ft 451kts
01-Dec-17 10:08 39.368555 -122.169153 350 33990ft 450kts
01-Dec-17 10:09 39.493211 -122.176087 349 33989ft 449kts
01-Dec-17 10:10 39.617624 -122.184679 349 33988ft 450kts
01-Dec-17 10:11 39.741904 -122.193384 349 33987ft 449kts
01-Dec-17 10:12 39.866910 -122.200858 351 33987ft 452kts
01-Dec-17 10:13 39.992012 -122.206254 350 33986ft 451kts
01-Dec-17 10:14 40.113997 -122.213803 346 33986ft 443kts
01-Dec-17 10:15 40.237327 -122.221002 347 33987ft 447kts
01-Dec-17 10:16 40.360789 -122.228271 347 33988ft 445kts
01-Dec-17 10:17 40.484034 -122.236392 347 33987ft 444kts
01-Dec-17 10:18 40.607158 -122.244655 348 33987ft 447kts
01-Dec-17 10:19 40.730871 -122.251127 347 33986ft 446kts
01-Dec-17 10:20 40.854434 -122.258574 347 33960ft 446kts
01-Dec-17 10:21 40.978023 -122.266215 347 33958ft 447kts
01-Dec-17 10:22 41.099740 -122.273934 346 33957ft 446kts
01-Dec-17 10:23 41.204797 -122.281575 345 33960ft 449kts
01-Dec-17 10:24 41.328129 -122.290828 347 33960ft 446kts
01-Dec-17 10:25 41.451696 -122.298943 347 34013ft 447kts
01-Dec-17 10:26 41.575315 -122.306815 347 34040ft 447kts
01-Dec-17 10:27 41.700036 -122.308619 348 34039ft 448kts
01-Dec-17 10:28 41.824112 -122.314967 347 34038ft 446kts
01-Dec-17 10:29 41.948277 -122.322633 346 34038ft 447kts
01-Dec-17 10:30 42.072173 -122.330527 346 33985ft 447kts
01-Dec-17 10:31 42.195384 -122.338438 346 33986ft 447kts
01-Dec-17 10:32 42.319272 -122.346445 346 33986ft 449kts
01-Dec-17 10:33 42.443474 -122.354485 346 34023ft 448kts
01-Dec-17 10:34 42.567766 -122.362578 346 34038ft 448kts
01-Dec-17 10:35 42.691570 -122.370668 346 34038ft 448kts
01-Dec-17 10:36 42.815707 -122.378812 346 34037ft 448kts
01-Dec-17 10:37 42.939878 -122.386991 346 34036ft 448kts
01-Dec-17 10:38 43.064185 -122.395214 346 33986ft 449kts
01-Dec-17 10:39 43.187734 -122.403412 346 33985ft 449kts
01-Dec-17 10:40 43.311482 -122.411657 346 33985ft 448kts
01-Dec-17 10:41 43.434703 -122.426127 345 33984ft 446kts
01-Dec-17 10:42 43.558491 -122.435836 346 33983ft 449kts
01-Dec-17 10:43 43.682754 -122.443363 346 33983ft 448kts
01-Dec-17 10:44 43.807117 -122.452256 345 33982ft 447kts
01-Dec-17 10:45 43.931103 -122.461577 346 33981ft 448kts
01-Dec-17 10:46 44.055305 -122.470224 346 33981ft 449kts
01-Dec-17 10:47 44.178688 -122.476620 347 33984ft 450kts
01-Dec-17 10:48 44.301417 -122.484077 346 33984ft 447kts
01-Dec-17 10:49 44.424989 -122.492470 346 33983ft 447kts
01-Dec-17 10:50 44.545160 -122.500804 346 33982ft 448kts
01-Dec-17 10:51 44.668643 -122.509418 346 33057ft 448kts
01-Dec-17 10:52 44.793722 -122.518192 347 30500ft 445kts
01-Dec-17 10:53 44.916106 -122.526906 348 29983ft 454kts
01-Dec-17 10:54 45.042654 -122.535801 348 29977ft 456kts
01-Dec-17 10:55 45.168026 -122.544696 348 29971ft 456kts
01-Dec-17 10:56 45.293934 -122.553682 348 29963ft 457kts
01-Dec-17 10:57 45.419832 -122.565055 347 29963ft 456kts
01-Dec-17 10:58 45.545610 -122.574913 347 29590ft 439kts
01-Dec-17 10:59 45.668684 -122.582971 348 28570ft 446kts
01-Dec-17 11:00 45.790741 -122.596357 340 27526ft 431kts
01-Dec-17 11:01 45.907480 -122.626004 341 26119ft 424kts
01-Dec-17 11:02 46.022139 -122.654697 341 24328ft 415kts
01-Dec-17 11:03 46.131887 -122.682224 341 22478ft 404kts
01-Dec-17 11:04 46.240121 -122.709483 342 20661ft 394kts
01-Dec-17 11:05 46.346328 -122.736334 343 18876ft 385kts
01-Dec-17 11:06 46.449904 -122.762616 343 17157ft 376kts
01-Dec-17 11:07 46.551626 -122.788528 344 15459ft 367kts
01-Dec-17 11:08 46.650690 -122.813860 344 13800ft 359kts
01-Dec-17 11:09 46.747599 -122.838732 344 12174ft 351kts
01-Dec-17 11:10 46.843040 -122.863321 344 12012ft 350kts
01-Dec-17 11:11 46.938625 -122.887456 350 12011ft 352kts
01-Dec-17 11:12 47.027925 -122.826745 38 11985ft 373kts
01-Dec-17 11:13 47.104391 -122.727655 38 12009ft 373kts
01-Dec-17 11:14 47.181360 -122.631742 37 12011ft 373kts
01-Dec-17 11:15 47.245717 -122.533154 63 11794ft 379kts
01-Dec-17 11:16 47.245574 -122.389824 104 10220ft 327kts
01-Dec-17 11:17 47.228090 -122.268790 105 8896ft 311kts
01-Dec-17 11:18 47.211962 -122.145025 94 7404ft 308kts
01-Dec-17 11:19 47.260070 -122.055466 2 5980ft 303kts
01-Dec-17 11:20 47.317718 -122.119301 304 4692ft 284kts
01-Dec-17 11:21 47.364858 -122.203012 310 3789ft 262kts
01-Dec-17 11:22 47.412106 -122.274063 313 3518ft 262kts
01-Dec-17 11:23 47.468529 -122.330159 329 3411ft 235kts
01-Dec-17 11:24 47.525344 -122.376330 327 3337ft 232kts
01-Dec-17 11:25 47.577262 -122.419388 327 2770ft 205kts
01-Dec-17 11:26 47.626154 -122.455029 356 2206ft 194kts
01-Dec-17 11:27 47.639067 -122.399861 131 2185ft 171kts
01-Dec-17 11:28 47.604498 -122.365812 155 1464ft 134kts
01-Dec-17 11:29 47.572666 -122.338672 155 769ft 132kts
01-Dec-17 11:30 47.541702 -122.312273 155 100ft 128kts
01-Dec-17 11:31 47.526815 -122.300207 205 26ft 4kts
01-Dec-17 11:32 47.526745 -122.301102 310 26ft 7kts
01-Dec-17 11:33 47.529024 -122.303132 331 26ft 10kts
01-Dec-17 11:34 47.531376 -122.305136 330 26ft 11kts
01-Dec-17 11:35 47.533329 -122.307496 249 26ft 10kts

Navigation Log

Ident Type
Flight plan parsing failed, navigation log unavailable